KIPL/IPL METAR and TAF weather

Enter ICAO airport designator
Station Type Date Time Source
KIPL METAR 2022/01/23 11:53 UTC NOAA

KIPL 231153Z AUTO VRB04KT 10SM CLR 09/01 A3009 RMK AO2 SLP189 T00890006 10144 20078 53005


Station Type Date Time Source
KIPL Decoded METAR 2022/01/23 11:53 UTC NOAA

Imperial, Imperial County Airport, CA, United States (KIPL) 32-50-03N 115-34-43W -15M
Jan 23, 2022 - 06:53 AM EST / 2022.01.23 1153 UTC
Wind: Variable at 5 MPH (4 KT):0
Visibility: 10 mile(s):0
Sky conditions: clear
Temperature: 48.0 F (8.9 C)
Dew Point: 33.1 F (0.6 C)
Relative Humidity: 55%
Pressure (altimeter): 30.09 in. Hg (1018 hPa)
Pressure tendency: 0.01 inches (0.5 hPa) higher than three hours ago
ob: KIPL 231153Z AUTO VRB04KT 10SM CLR 09/01 A3009 RMK AO2 SLP189 T00890006 10144 20078 53005
cycle: 12

Station Type Date Time Source
KIPL TAF 2022/01/23 12:22 UTC NOAA

TAF KIPL 231120Z 2312/2412 31005KT P6SM FEW080
FM231700 36009KT P6SM SKC
FM240100 27006KT P6SM SKC

Example: see airport list